Time;durP1;ratioP1;P1;durP2;ratioP2;P2;SDS_P1;SDS_P2;PMS_P1;PMS_P2;Temp;Humidity;BMP_temperature;BMP_pressure;BME280_temperature;BME280_humidity;BME280_pressure;Samples;Min_cycle;Max_cycle;Signal;HPM_P1;HPM_P2
2022/04/25 00:01:24;;;;;;;4.32;2.60;;;23.60;46.20;;;;;;6158540;28;80324;-64
2022/04/25 00:04:24;;;;;;;4.88;2.95;;;23.60;46.10;;;;;;6159352;28;80395;-65
2022/04/25 00:07:25;;;;;;;5.30;2.90;;;23.60;46.10;;;;;;6158694;28;80578;-65
2022/04/25 00:10:25;;;;;;;4.47;2.50;;;23.60;46.00;;;;;;6158666;28;80170;-65
2022/04/25 00:13:26;;;;;;;7.72;3.15;;;23.60;46.00;;;;;;6158591;28;80720;-65
2022/04/25 00:16:27;;;;;;;5.25;3.08;;;23.60;46.00;;;;;;6158363;28;86563;-63
2022/04/25 00:19:27;;;;;;;5.00;3.03;;;23.60;46.00;;;;;;6157809;28;80279;-64
2022/04/25 00:22:28;;;;;;;5.95;2.70;;;23.60;46.00;;;;;;6158708;28;80467;-64
2022/04/25 00:25:28;;;;;;;5.30;2.90;;;23.60;46.00;;;;;;6158893;28;80332;-64
2022/04/25 00:28:29;;;;;;;2.95;2.38;;;23.60;46.00;;;;;;6159036;28;80126;-64
2022/04/25 00:31:29;;;;;;;5.70;3.40;;;23.60;45.90;;;;;;6158698;28;80418;-65
2022/04/25 00:34:30;;;;;;;4.57;3.05;;;23.50;45.90;;;;;;6158591;28;80312;-64
2022/04/25 00:37:30;;;;;;;3.63;2.50;;;23.60;45.90;;;;;;6152312;28;80373;-64
2022/04/25 00:40:31;;;;;;;5.03;3.08;;;23.50;45.80;;;;;;6132646;28;82684;-65
2022/04/25 00:43:32;;;;;;;5.63;3.00;;;23.50;46.30;;;;;;6157844;28;81641;-64
2022/04/25 00:46:32;;;;;;;5.88;2.38;;;23.50;46.10;;;;;;6158657;28;80300;-64
2022/04/25 00:49:33;;;;;;;4.03;2.67;;;23.50;46.00;;;;;;6158442;28;81436;-64
2022/04/25 00:52:33;;;;;;;4.13;2.55;;;23.50;46.00;;;;;;6144650;28;80123;-65
2022/04/25 00:55:36;;;;;;;3.50;2.40;;;23.50;45.90;;;;;;6144714;28;80293;-64
2022/04/25 00:58:36;;;;;;;3.30;2.33;;;23.60;46.00;;;;;;6136768;28;80301;-64
2022/04/25 01:01:37;;;;;;;3.60;2.53;;;23.60;46.00;;;;;;6138211;28;81024;-64
2022/04/25 01:04:37;;;;;;;3.42;2.55;;;23.60;46.00;;;;;;6158718;28;80749;-64
2022/04/25 01:07:38;;;;;;;4.93;3.10;;;23.60;46.10;;;;;;6152402;28;80302;-64
2022/04/25 01:10:38;;;;;;;5.63;2.88;;;23.60;46.00;;;;;;6134441;28;80444;-64
2022/04/25 01:13:39;;;;;;;4.50;2.55;;;23.60;46.00;;;;;;6156900;28;81892;-64
2022/04/25 01:16:39;;;;;;;4.45;3.05;;;23.60;46.00;;;;;;6157864;28;80779;-64
2022/04/25 01:19:40;;;;;;;4.45;3.00;;;23.60;46.00;;;;;;6156918;28;83271;-64
2022/04/25 01:22:41;;;;;;;4.40;2.80;;;23.60;46.10;;;;;;6148182;28;80147;-64
2022/04/25 01:29:01;;;;;;;5.13;2.78;;;23.50;46.00;;;;;;6133578;28;80447;-64
2022/04/25 01:32:02;;;;;;;7.40;2.92;;;23.50;46.00;;;;;;6147984;28;80845;-64
2022/04/25 01:35:02;;;;;;;3.30;2.22;;;23.60;46.00;;;;;;6158400;28;80576;-65
2022/04/25 01:38:03;;;;;;;4.03;2.80;;;23.50;46.00;;;;;;6156116;28;81649;-64
2022/04/25 01:41:03;;;;;;;5.03;2.88;;;23.50;46.00;;;;;;6156585;28;80481;-64
2022/04/25 01:44:04;;;;;;;3.55;2.53;;;23.50;45.90;;;;;;6140231;28;80367;-64
2022/04/25 01:47:04;;;;;;;8.43;3.30;;;23.50;46.00;;;;;;6156928;28;80273;-64
2022/04/25 01:50:05;;;;;;;5.65;3.10;;;23.50;46.00;;;;;;6137624;28;80451;-64
2022/04/25 01:53:05;;;;;;;3.95;2.75;;;23.50;46.50;;;;;;6146101;28;80088;-64
2022/04/25 01:56:06;;;;;;;4.07;2.75;;;23.50;45.90;;;;;;6161870;28;80378;-64
2022/04/25 01:59:06;;;;;;;5.15;2.80;;;23.50;45.90;;;;;;6155877;28;81441;-64
2022/04/25 02:02:07;;;;;;;5.47;3.25;;;23.50;45.90;;;;;;6152295;28;81046;-64
2022/04/25 02:05:07;;;;;;;4.55;2.90;;;23.50;46.00;;;;;;6161343;28;80507;-64
2022/04/25 02:08:08;;;;;;;3.00;2.42;;;23.50;46.00;;;;;;6153998;28;83658;-64
2022/04/25 02:11:26;;;;;;;5.18;2.80;;;23.50;46.10;;;;;;6137308;28;80482;-64
2022/04/25 02:14:29;;;;;;;3.95;2.85;;;23.50;46.10;;;;;;6137604;28;80892;-65
2022/04/25 02:17:29;;;;;;;5.88;2.70;;;23.50;45.90;;;;;;6137272;28;81341;-64
2022/04/25 02:20:30;;;;;;;4.32;2.72;;;23.50;45.90;;;;;;6137001;28;80660;-65
2022/04/25 02:23:31;;;;;;;4.28;2.80;;;23.50;45.80;;;;;;6136305;28;81846;-64
2022/04/25 02:26:31;;;;;;;3.65;2.53;;;23.50;45.80;;;;;;6136497;28;80385;-64
2022/04/25 02:29:32;;;;;;;5.05;3.05;;;23.50;45.80;;;;;;6146726;28;81003;-65
2022/04/25 02:32:32;;;;;;;4.85;2.65;;;23.50;45.80;;;;;;6135499;28;81448;-65
2022/04/25 02:35:33;;;;;;;4.10;2.58;;;23.50;45.80;;;;;;6136570;28;80956;-65
2022/04/25 02:38:33;;;;;;;3.50;2.45;;;23.50;46.00;;;;;;6140708;28;81673;-64
2022/04/25 02:41:34;;;;;;;4.78;2.97;;;23.50;45.90;;;;;;6160970;28;80528;-64
2022/04/25 02:44:34;;;;;;;3.65;2.30;;;23.50;45.90;;;;;;6160752;28;81316;-64
2022/04/25 02:47:35;;;;;;;4.38;3.08;;;23.50;45.80;;;;;;6160766;28;80365;-64
2022/04/25 02:50:36;;;;;;;4.95;2.63;;;23.50;45.90;;;;;;6140981;28;80444;-64
2022/04/25 02:53:36;;;;;;;4.30;2.63;;;23.50;45.80;;;;;;6138475;28;80752;-62
2022/04/25 02:56:37;;;;;;;3.95;2.60;;;23.50;45.70;;;;;;6159886;28;80928;-64
2022/04/25 02:59:37;;;;;;;3.83;2.58;;;23.50;45.80;;;;;;6159192;28;81331;-64
2022/04/25 03:02:38;;;;;;;3.03;2.42;;;23.50;45.80;;;;;;6160269;28;80699;-64
2022/04/25 03:05:38;;;;;;;3.75;2.60;;;23.50;45.80;;;;;;6159971;28;81730;-64
2022/04/25 03:08:39;;;;;;;4.63;2.65;;;23.50;45.70;;;;;;6159627;28;81585;-64
2022/04/25 03:11:39;;;;;;;4.53;2.58;;;23.50;45.70;;;;;;6159581;28;80445;-64
2022/04/25 03:14:40;;;;;;;3.95;2.80;;;23.50;45.60;;;;;;6160026;28;81295;-65
2022/04/25 03:17:41;;;;;;;3.53;2.70;;;23.50;45.50;;;;;;6159865;28;80454;-64
2022/04/25 03:20:42;;;;;;;3.65;2.67;;;23.50;45.50;;;;;;6159290;28;80319;-65
2022/04/25 03:23:42;;;;;;;5.97;2.35;;;23.50;45.70;;;;;;6160211;28;81226;-65
2022/04/25 03:26:43;;;;;;;4.95;2.60;;;23.40;45.50;;;;;;6140445;28;80652;-65
2022/04/25 03:29:43;;;;;;;5.32;3.10;;;23.40;45.70;;;;;;6138229;28;80298;-65
2022/04/25 03:32:45;;;;;;;4.63;2.88;;;23.50;45.70;;;;;;6135640;28;81548;-65
2022/04/25 03:35:46;;;;;;;3.55;2.50;;;23.50;45.90;;;;;;6135541;28;80936;-64
2022/04/25 03:38:47;;;;;;;4.18;2.85;;;23.40;45.70;;;;;;6143134;28;81444;-65
2022/04/25 03:41:48;;;;;;;3.97;2.58;;;23.40;45.80;;;;;;6135050;28;81437;-64
2022/04/25 03:44:49;;;;;;;3.33;2.53;;;23.40;45.60;;;;;;6139398;28;80568;-66
2022/04/25 03:47:50;;;;;;;4.55;2.67;;;23.50;45.80;;;;;;6159696;28;80408;-64
2022/04/25 03:50:50;;;;;;;4.65;2.80;;;23.40;45.80;;;;;;6146309;28;82086;-64
2022/04/25 03:53:51;;;;;;;4.20;2.70;;;23.40;45.80;;;;;;6158938;28;80466;-64
2022/04/25 03:57:10;;;;;;;3.75;2.72;;;23.50;45.90;;;;;;6138318;28;80394;-64
2022/04/25 04:00:10;;;;;;;4.38;2.50;;;23.50;45.80;;;;;;6141407;28;80568;-63
2022/04/25 04:03:15;;;;;;;3.05;2.60;;;23.50;45.80;;;;;;6143801;28;80485;-67
2022/04/25 04:06:16;;;;;;;4.68;2.95;;;23.50;45.90;;;;;;6151472;28;80840;-67
2022/04/25 04:12:36;;;;;;;4.05;2.63;;;23.50;46.00;;;;;;6150714;28;80318;-65
2022/04/25 04:15:36;;;;;;;4.13;2.63;;;23.50;45.90;;;;;;6158703;28;80405;-64
2022/04/25 04:18:39;;;;;;;4.68;2.40;;;23.50;46.30;;;;;;6157436;28;82273;-64
2022/04/25 04:21:40;;;;;;;3.40;2.35;;;23.50;46.30;;;;;;6156965;28;80323;-66
2022/04/25 04:24:40;;;;;;;6.40;2.40;;;23.50;46.50;;;;;;6159320;28;80411;-65
2022/04/25 04:27:41;;;;;;;5.88;2.65;;;23.50;46.70;;;;;;6137841;28;80558;-67
2022/04/25 04:30:44;;;;;;;4.95;2.92;;;23.50;46.80;;;;;;6146222;28;81105;-70
2022/04/25 04:33:45;;;;;;;3.03;2.17;;;23.50;46.70;;;;;;6162642;28;81651;-72
2022/04/25 04:36:45;;;;;;;4.40;2.50;;;23.60;46.60;;;;;;6158101;28;81111;-72
2022/04/25 04:39:46;;;;;;;4.93;2.90;;;23.50;47.10;;;;;;6156533;28;83402;-66
2022/04/25 04:42:46;;;;;;;8.43;2.97;;;23.50;47.00;;;;;;6140052;28;80391;-64
2022/04/25 04:45:47;;;;;;;7.30;3.28;;;23.60;47.40;;;;;;6134565;28;80297;-65
2022/04/25 04:48:47;;;;;;;5.45;3.10;;;23.60;47.50;;;;;;6133692;28;80208;-66
2022/04/25 04:51:48;;;;;;;10.25;3.45;;;23.60;47.70;;;;;;6134161;28;80923;-64
2022/04/25 04:54:48;;;;;;;6.03;3.30;;;23.60;48.00;;;;;;6157846;28;80779;-65
2022/04/25 04:57:49;;;;;;;8.20;3.05;;;23.60;48.10;;;;;;6151939;28;80533;-65
2022/04/25 05:00:49;;;;;;;5.82;3.03;;;23.70;48.10;;;;;;6152750;28;81860;-64
2022/04/25 05:03:50;;;;;;;6.57;3.30;;;23.70;48.10;;;;;;6135276;28;81536;-65
2022/04/25 05:06:50;;;;;;;4.78;2.60;;;23.70;48.40;;;;;;6134069;28;80393;-65
2022/04/25 05:09:52;;;;;;;6.93;3.40;;;23.60;49.10;;;;;;6134854;28;80565;-66
2022/04/25 05:12:56;;;;;;;9.07;3.53;;;23.60;49.30;;;;;;6149855;28;81000;-69
2022/04/25 05:15:56;;;;;;;6.97;3.05;;;23.70;49.60;;;;;;6162197;28;80953;-68
2022/04/25 05:18:57;;;;;;;4.20;3.13;;;23.70;49.30;;;;;;6153942;28;82015;-65
2022/04/25 05:21:58;;;;;;;13.30;3.50;;;23.70;48.80;;;;;;6158062;28;81050;-64
2022/04/25 05:24:58;;;;;;;4.75;3.03;;;23.70;48.90;;;;;;6162227;28;80495;-68
2022/04/25 05:27:59;;;;;;;5.75;3.30;;;23.70;48.90;;;;;;6162304;28;80561;-63
2022/04/25 05:30:59;;;;;;;10.85;4.43;;;23.70;48.60;;;;;;6159394;28;81585;-69
2022/04/25 05:34:01;;;;;;;11.00;4.90;;;23.70;48.70;;;;;;6160428;28;80436;-67
2022/04/25 05:37:01;;;;;;;15.27;4.40;;;23.70;48.80;;;;;;6154720;28;80358;-64
2022/04/25 05:40:02;;;;;;;17.38;5.57;;;23.70;48.40;;;;;;6161440;28;81466;-68
2022/04/25 05:43:02;;;;;;;17.38;5.07;;;23.70;48.40;;;;;;6162144;28;80333;-69
2022/04/25 05:46:03;;;;;;;10.93;4.90;;;23.70;48.70;;;;;;6160727;28;80319;-64
2022/04/25 05:52:23;;;;;;;17.40;5.60;;;23.70;49.00;;;;;;6158091;28;84857;-63
2022/04/25 05:55:23;;;;;;;21.40;6.00;;;23.70;48.90;;;;;;6161471;28;80850;-64
2022/04/25 05:58:24;;;;;;;14.57;4.82;;;23.70;48.90;;;;;;6149948;28;81197;-65
2022/04/25 06:01:24;;;;;;;16.73;5.38;;;23.70;48.90;;;;;;6136973;28;80249;-64
2022/04/25 06:04:25;;;;;;;16.80;5.30;;;23.70;49.40;;;;;;6151691;28;81463;-66
2022/04/25 06:07:25;;;;;;;12.95;5.18;;;23.70;49.20;;;;;;6150544;28;82546;-66
2022/04/25 06:10:26;;;;;;;12.60;5.25;;;23.70;49.00;;;;;;6155372;28;80703;-66
2022/04/25 06:13:27;;;;;;;10.30;4.63;;;23.70;48.80;;;;;;6152591;28;80746;-64
2022/04/25 06:16:27;;;;;;;13.02;4.88;;;23.70;48.70;;;;;;6161334;28;80582;-66
2022/04/25 06:19:28;;;;;;;13.98;5.57;;;23.70;48.60;;;;;;6144337;28;80086;-67
2022/04/25 06:22:28;;;;;;;19.27;5.78;;;23.70;48.50;;;;;;6137215;28;80765;-73
2022/04/25 06:25:32;;;;;;;19.80;4.75;;;23.70;48.60;;;;;;6160732;28;80423;-70
2022/04/25 06:28:32;;;;;;;14.35;4.97;;;23.70;48.40;;;;;;6160427;28;81042;-72
2022/04/25 06:31:33;;;;;;;12.77;5.05;;;23.70;48.10;;;;;;6160190;28;80351;-71
2022/04/25 06:34:34;;;;;;;26.75;7.22;;;23.80;48.60;;;;;;6160209;28;80245;-66
2022/04/25 06:37:34;;;;;;;15.65;6.25;;;23.80;49.60;;;;;;6160892;28;80533;-67
2022/04/25 06:40:35;;;;;;;16.77;6.40;;;23.80;49.10;;;;;;6138011;28;80402;-67
2022/04/25 06:43:36;;;;;;;18.33;5.90;;;23.80;49.10;;;;;;6136356;28;80269;-68
2022/04/25 06:46:37;;;;;;;15.63;5.78;;;23.80;49.10;;;;;;6154705;28;80654;-68
2022/04/25 06:49:38;;;;;;;18.20;5.65;;;23.80;49.30;;;;;;6146687;28;81412;-68
2022/04/25 06:52:38;;;;;;;22.65;6.90;;;23.80;49.40;;;;;;6136368;28;80436;-68
2022/04/25 06:55:39;;;;;;;20.30;5.93;;;23.80;49.30;;;;;;6147108;28;81499;-65
2022/04/25 06:58:39;;;;;;;17.42;5.45;;;23.80;49.20;;;;;;6160405;28;80391;-68
2022/04/25 07:01:40;;;;;;;21.40;6.05;;;23.80;49.30;;;;;;6157241;28;80265;-65
2022/04/25 07:04:42;;;;;;;15.77;5.60;;;23.80;48.90;;;;;;6146401;28;80473;-64
2022/04/25 07:07:42;;;;;;;16.52;5.50;;;23.80;49.50;;;;;;6158683;28;80804;-64
2022/04/25 07:10:43;;;;;;;21.80;5.70;;;23.90;49.70;;;;;;6156777;28;80881;-69
2022/04/25 07:13:45;;;;;;;25.73;6.45;;;23.80;49.80;;;;;;6159448;28;80469;-68
2022/04/25 07:16:45;;;;;;;17.08;5.63;;;23.90;49.80;;;;;;6158726;28;80714;-63
2022/04/25 07:19:46;;;;;;;15.50;5.65;;;23.90;49.60;;;;;;6150659;28;80570;-65
2022/04/25 07:29:15;;;;;;;11.98;5.10;;;23.90;50.20;;;;;;6158820;28;80595;-67
2022/04/25 07:32:18;;;;;;;17.65;6.15;;;23.90;50.30;;;;;;6159631;28;80816;-64
2022/04/25 07:35:20;;;;;;;15.55;6.32;;;24.00;50.30;;;;;;6156313;28;80371;-65
2022/04/25 07:38:20;;;;;;;10.77;4.50;;;24.00;50.20;;;;;;6157130;28;82535;-63
2022/04/25 07:41:21;;;;;;;11.80;4.82;;;24.00;49.90;;;;;;6151903;28;80382;-63
2022/04/25 07:44:21;;;;;;;23.15;6.40;;;24.00;49.70;;;;;;6144313;28;81333;-64
2022/04/25 07:47:22;;;;;;;142.73;61.60;;;24.00;50.10;;;;;;6136435;28;80830;-65
2022/04/25 07:50:23;;;;;;;278.48;122.82;;;24.00;49.80;;;;;;6156316;28;83184;-65
2022/04/25 07:53:24;;;;;;;233.82;101.63;;;23.90;49.90;;;;;;6153828;28;85463;-64
2022/04/25 07:56:26;;;;;;;227.90;106.35;;;23.90;49.60;;;;;;6142515;28;86214;-65
2022/04/25 07:59:26;;;;;;;223.93;98.63;;;24.00;49.70;;;;;;6153981;28;85599;-64
2022/04/25 08:02:28;;;;;;;196.30;89.28;;;24.00;49.80;;;;;;6146524;28;86748;-64
2022/04/25 08:05:29;;;;;;;180.00;80.40;;;24.10;49.90;;;;;;6148478;28;83266;-66
2022/04/25 08:08:29;;;;;;;155.77;68.47;;;24.10;49.90;;;;;;6152562;28;83164;-66
2022/04/25 08:11:30;;;;;;;135.63;60.13;;;24.20;49.80;;;;;;6155825;28;83546;-67
2022/04/25 08:18:04;;;;;;;110.68;50.83;;;24.30;49.90;;;;;;6153572;28;83290;-64
2022/04/25 08:21:05;;;;;;;98.10;45.53;;;24.30;49.80;;;;;;6153733;28;83273;-64
2022/04/25 08:24:06;;;;;;;95.47;44.50;;;24.40;49.60;;;;;;6148135;28;83326;-64
2022/04/25 08:27:06;;;;;;;79.80;36.92;;;24.40;49.50;;;;;;6130472;28;82997;-64
2022/04/25 08:30:07;;;;;;;84.00;37.78;;;24.50;49.40;;;;;;6131403;28;89652;-64
2022/04/25 08:33:08;;;;;;;81.57;37.88;;;24.50;49.10;;;;;;6131368;28;83353;-62
2022/04/25 08:36:08;;;;;;;73.38;35.53;;;24.60;49.10;;;;;;6130256;28;84126;-65
2022/04/25 08:39:09;;;;;;;63.80;31.85;;;24.50;49.00;;;;;;6131039;28;83311;-64
2022/04/25 08:42:10;;;;;;;63.45;28.67;;;24.50;48.90;;;;;;6129761;28;84520;-64
2022/04/25 08:45:10;;;;;;;60.38;26.17;;;24.50;49.00;;;;;;6131259;28;82970;-65
2022/04/25 08:48:11;;;;;;;56.53;27.15;;;24.50;49.20;;;;;;6131001;28;83136;-65
2022/04/25 08:51:11;;;;;;;55.85;26.08;;;24.40;50.80;;;;;;6136818;28;84055;-65
2022/04/25 08:54:13;;;;;;;51.60;25.95;;;24.40;50.90;;;;;;6154180;28;88732;-65
2022/04/25 08:57:16;;;;;;;48.08;23.58;;;24.40;51.70;;;;;;6133834;28;83538;-71
2022/04/25 09:00:16;;;;;;;48.85;22.83;;;24.40;51.30;;;;;;6152853;28;82802;-67
2022/04/25 09:03:18;;;;;;;50.22;24.23;;;24.50;51.60;;;;;;6155903;28;84390;-68
2022/04/25 09:06:19;;;;;;;45.08;21.17;;;24.50;52.70;;;;;;6155228;28;83093;-68
2022/04/25 09:09:20;;;;;;;46.45;21.25;;;24.40;52.40;;;;;;6135575;28;83287;-72
2022/04/25 09:12:20;;;;;;;44.45;20.90;;;24.40;52.50;;;;;;6147151;28;83067;-70
2022/04/25 09:15:21;;;;;;;41.88;20.25;;;24.40;52.60;;;;;;6157915;28;83505;-70
2022/04/25 09:18:22;;;;;;;48.63;21.60;;;24.40;52.70;;;;;;6159101;28;84595;-69
2022/04/25 09:21:22;;;;;;;49.63;22.17;;;24.40;53.00;;;;;;6157431;28;82953;-72
2022/04/25 09:24:23;;;;;;;48.97;25.00;;;24.40;53.30;;;;;;6139476;28;83589;-71
2022/04/25 09:27:24;;;;;;;62.17;27.00;;;24.30;54.00;;;;;;6156586;28;84162;-72
2022/04/25 09:30:25;;;;;;;62.80;27.00;;;24.40;54.20;;;;;;6153072;28;84526;-63
2022/04/25 09:33:26;;;;;;;85.10;35.63;;;24.30;54.70;;;;;;6158982;28;83250;-63
2022/04/25 09:36:26;;;;;;;71.95;31.08;;;24.30;55.40;;;;;;6158506;28;83126;-65
2022/04/25 09:39:28;;;;;;;62.25;29.15;;;24.30;55.00;;;;;;6146900;28;82973;-65
2022/04/25 09:42:28;;;;;;;56.20;26.27;;;24.30;55.00;;;;;;6135033;28;83574;-64
2022/04/25 09:45:29;;;;;;;48.35;23.17;;;24.30;55.30;;;;;;6135132;28;82733;-64
2022/04/25 09:48:29;;;;;;;50.95;25.20;;;24.30;54.70;;;;;;6156769;28;83457;-64
2022/04/25 09:51:30;;;;;;;48.90;21.85;;;24.30;54.90;;;;;;6158775;28;83285;-64
2022/04/25 09:54:30;;;;;;;48.67;22.17;;;24.30;54.60;;;;;;6137289;28;82853;-62
2022/04/25 09:57:31;;;;;;;49.58;21.73;;;24.40;55.00;;;;;;6152479;28;83396;-63
2022/04/25 10:00:33;;;;;;;45.72;20.85;;;24.30;55.70;;;;;;6153305;28;84005;-63
2022/04/25 10:03:37;;;;;;;39.45;19.50;;;24.30;56.10;;;;;;6144946;28;83846;-63
2022/04/25 10:06:38;;;;;;;37.05;17.80;;;24.30;56.10;;;;;;6133393;28;83259;-70
2022/04/25 10:09:38;;;;;;;30.73;15.27;;;24.30;56.20;;;;;;6144881;28;83284;-63
2022/04/25 10:12:39;;;;;;;30.38;12.35;;;24.20;52.80;;;;;;6154282;28;83434;-63
2022/04/25 10:15:39;;;;;;;17.23;8.77;;;24.10;52.00;;;;;;6154460;28;83266;-68
2022/04/25 10:18:40;;;;;;;17.10;8.85;;;24.00;51.20;;;;;;6149699;28;82935;-61
2022/04/25 10:21:40;;;;;;;17.20;8.00;;;23.90;51.00;;;;;;6137667;28;80388;-63
2022/04/25 10:24:41;;;;;;;13.48;6.70;;;23.90;50.60;;;;;;6153839;28;81254;-64
2022/04/25 10:27:41;;;;;;;12.85;6.97;;;23.80;50.80;;;;;;6155798;28;80509;-64
2022/04/25 10:30:42;;;;;;;11.32;5.95;;;23.70;50.10;;;;;;6157952;28;88184;-63
2022/04/25 10:33:43;;;;;;;8.52;5.57;;;23.70;50.20;;;;;;6152067;28;80608;-63
2022/04/25 10:36:43;;;;;;;11.95;5.72;;;23.60;50.10;;;;;;6137242;28;80334;-63
2022/04/25 10:39:44;;;;;;;9.15;5.15;;;23.50;50.10;;;;;;6136683;28;80371;-62
2022/04/25 10:46:04;;;;;;;6.38;4.05;;;23.50;51.20;;;;;;6148024;28;80653;-62
2022/04/25 10:49:05;;;;;;;9.88;4.50;;;23.50;51.20;;;;;;6136316;28;80330;-63
2022/04/25 10:52:09;;;;;;;12.23;5.43;;;23.50;51.30;;;;;;6129195;28;84025;-63
2022/04/25 10:55:11;;;;;;;31.73;6.43;;;23.50;51.10;;;;;;6143927;28;81478;-62
2022/04/25 10:58:12;;;;;;;22.00;5.75;;;23.60;51.20;;;;;;6142087;28;80538;-62
2022/04/25 11:01:13;;;;;;;13.88;4.70;;;23.50;51.20;;;;;;6147328;28;80367;-62
2022/04/25 11:04:13;;;;;;;15.80;3.90;;;23.50;51.00;;;;;;6136672;28;80937;-65
2022/04/25 11:07:14;;;;;;;9.07;3.65;;;23.50;51.00;;;;;;6136637;28;81908;-66
2022/04/25 11:10:14;;;;;;;9.82;3.50;;;23.40;51.10;;;;;;6136214;28;80646;-64
2022/04/25 11:13:18;;;;;;;9.35;4.35;;;23.40;51.30;;;;;;6136695;28;81440;-65
2022/04/25 11:16:21;;;;;;;8.32;3.50;;;23.40;51.30;;;;;;6157294;28;85052;-66
2022/04/25 11:19:22;;;;;;;9.38;4.20;;;23.40;51.70;;;;;;6148085;28;80831;-65
2022/04/25 11:22:22;;;;;;;7.90;4.32;;;23.40;51.70;;;;;;6143599;28;80438;-69
2022/04/25 11:25:23;;;;;;;6.40;3.38;;;23.40;52.00;;;;;;6156907;28;80947;-67
2022/04/25 11:28:23;;;;;;;7.97;3.95;;;23.40;52.20;;;;;;6151495;28;81176;-65
2022/04/25 11:31:24;;;;;;;6.57;3.42;;;23.40;52.40;;;;;;6152185;28;80964;-66
2022/04/25 11:34:25;;;;;;;6.63;3.33;;;23.50;52.80;;;;;;6141355;28;80761;-65
2022/04/25 11:37:25;;;;;;;5.13;3.30;;;23.50;53.00;;;;;;6154616;28;80713;-65
2022/04/25 11:40:26;;;;;;;5.97;3.17;;;23.50;53.10;;;;;;6153798;28;80545;-66
2022/04/25 11:43:27;;;;;;;5.35;3.13;;;23.60;53.20;;;;;;6153345;28;82112;-65
2022/04/25 11:46:27;;;;;;;5.18;2.65;;;23.60;52.80;;;;;;6153713;28;80375;-65
2022/04/25 11:49:28;;;;;;;5.75;2.83;;;23.70;52.70;;;;;;6156636;28;80942;-66
2022/04/25 11:52:29;;;;;;;5.10;2.90;;;23.70;52.50;;;;;;6156620;28;80623;-67
2022/04/25 11:55:29;;;;;;;5.55;2.83;;;23.70;52.30;;;;;;6153594;28;81043;-65
2022/04/25 11:58:30;;;;;;;4.53;2.85;;;23.60;51.60;;;;;;6153470;28;81760;-67
2022/04/25 12:01:30;;;;;;;4.38;2.47;;;23.60;51.30;;;;;;6140158;28;80276;-64
2022/04/25 12:04:33;;;;;;;4.38;2.22;;;23.60;51.60;;;;;;6149947;28;80676;-66
2022/04/25 12:07:33;;;;;;;8.63;3.10;;;23.60;51.30;;;;;;6151015;28;80882;-66
2022/04/25 12:17:14;;;;;;;4.45;2.80;;;23.60;51.00;;;;;;6157011;28;80548;-65
2022/04/25 12:20:14;;;;;;;4.90;3.20;;;23.60;51.20;;;;;;6158603;28;80514;-65
2022/04/25 12:23:15;;;;;;;5.78;3.33;;;23.70;51.20;;;;;;6159210;28;81429;-66
2022/04/25 12:26:15;;;;;;;4.28;2.97;;;23.60;51.00;;;;;;6159199;28;80694;-66
2022/04/25 12:29:16;;;;;;;6.05;3.47;;;23.70;52.00;;;;;;6157238;28;83548;-66
2022/04/25 12:32:16;;;;;;;9.48;3.45;;;23.70;51.60;;;;;;6157783;28;81914;-64
2022/04/25 12:35:17;;;;;;;7.88;3.70;;;23.70;52.00;;;;;;6158513;28;80645;-67
2022/04/25 12:38:18;;;;;;;4.95;3.20;;;23.70;51.90;;;;;;6158887;28;80957;-74
2022/04/25 12:41:19;;;;;;;17.65;7.47;;;23.70;51.60;;;;;;6159274;28;80562;-75
2022/04/25 12:44:19;;;;;;;27.30;9.20;;;23.60;52.00;;;;;;6159187;28;80672;-75
2022/04/25 12:47:20;;;;;;;20.05;8.25;;;23.60;52.30;;;;;;6145101;28;80893;-73
2022/04/25 12:50:21;;;;;;;15.63;6.95;;;23.60;52.30;;;;;;6156954;28;82308;-72
2022/04/25 12:53:22;;;;;;;21.40;7.43;;;23.60;51.60;;;;;;6158907;28;80301;-69
2022/04/25 12:56:22;;;;;;;21.02;7.60;;;23.60;51.60;;;;;;6141003;28;82204;-64
2022/04/25 12:59:23;;;;;;;16.40;6.85;;;23.70;52.20;;;;;;6134985;28;80569;-66
2022/04/25 13:02:23;;;;;;;18.38;7.00;;;23.70;52.10;;;;;;6149588;28;80526;-71
2022/04/25 13:05:24;;;;;;;14.45;5.85;;;23.70;51.80;;;;;;6145471;28;80252;-64
2022/04/25 13:08:24;;;;;;;10.60;5.75;;;23.70;51.80;;;;;;6142106;28;80615;-65
2022/04/25 13:11:25;;;;;;;19.48;5.18;;;23.70;52.00;;;;;;6156134;28;82762;-65
2022/04/25 13:14:25;;;;;;;12.60;4.93;;;23.80;51.90;;;;;;6133894;28;80345;-66
2022/04/25 13:17:26;;;;;;;13.20;4.65;;;23.80;52.40;;;;;;6146913;28;81018;-65
2022/04/25 13:20:31;;;;;;;10.60;4.03;;;23.90;52.90;;;;;;6157067;28;80601;-65
2022/04/25 13:23:31;;;;;;;8.60;3.97;;;23.90;52.20;;;;;;6136593;28;80743;-67
2022/04/25 13:26:32;;;;;;;6.32;3.75;;;23.90;51.60;;;;;;6144233;28;80613;-66
2022/04/25 13:29:32;;;;;;;11.35;4.30;;;23.90;51.70;;;;;;6157947;28;81053;-67
2022/04/25 13:32:33;;;;;;;5.47;3.22;;;23.90;51.30;;;;;;6146693;28;80486;-67
2022/04/25 13:35:34;;;;;;;7.38;3.15;;;23.90;51.40;;;;;;6149082;28;82338;-66
2022/04/25 13:38:35;;;;;;;4.60;3.22;;;23.90;50.80;;;;;;6155976;28;81496;-67
2022/04/25 13:41:36;;;;;;;6.20;2.97;;;23.90;50.70;;;;;;6157805;28;80102;-66
2022/04/25 13:44:36;;;;;;;5.43;3.60;;;23.90;50.60;;;;;;6161875;28;81771;-65
2022/04/25 13:47:38;;;;;;;7.28;2.80;;;23.80;50.30;;;;;;6159877;28;80544;-75
2022/04/25 13:50:39;;;;;;;6.65;3.08;;;23.80;50.60;;;;;;6151853;28;80504;-65
2022/04/25 13:53:39;;;;;;;7.82;2.95;;;23.80;50.50;;;;;;6138419;28;80597;-66
2022/04/25 13:56:40;;;;;;;7.57;2.75;;;23.80;50.30;;;;;;6159364;28;82992;-67
2022/04/25 13:59:41;;;;;;;4.25;3.17;;;23.80;50.20;;;;;;6137356;28;81373;-63
2022/04/25 14:06:20;;;;;;;10.20;4.10;;;23.80;50.40;;;;;;6156979;28;81244;-66
2022/04/25 14:09:21;;;;;;;7.95;3.75;;;23.70;50.50;;;;;;6142144;28;80340;-66
2022/04/25 14:12:21;;;;;;;16.98;5.38;;;23.60;50.40;;;;;;6140036;28;80468;-64
2022/04/25 14:15:22;;;;;;;9.70;4.68;;;23.50;49.70;;;;;;6161147;28;80633;-66
2022/04/25 14:18:24;;;;;;;12.15;5.35;;;23.30;49.20;;;;;;6160392;28;80365;-64
2022/04/25 14:21:25;;;;;;;11.25;5.18;;;23.30;50.70;;;;;;6155864;28;81496;-64
2022/04/25 14:24:26;;;;;;;9.95;5.15;;;23.30;50.80;;;;;;6154315;28;80972;-64
2022/04/25 14:27:26;;;;;;;9.55;5.18;;;23.20;50.70;;;;;;6155276;28;81622;-64
2022/04/25 14:30:27;;;;;;;8.45;4.82;;;23.20;51.10;;;;;;6150386;28;81152;-65
2022/04/25 14:33:27;;;;;;;9.77;5.03;;;23.20;51.10;;;;;;6154942;28;80851;-66
2022/04/25 14:36:28;;;;;;;8.55;4.20;;;23.20;52.70;;;;;;6157987;28;80514;-65
2022/04/25 14:39:29;;;;;;;9.68;4.78;;;23.20;52.10;;;;;;6153813;28;80597;-65
2022/04/25 14:42:29;;;;;;;8.43;4.40;;;23.20;52.30;;;;;;6156984;28;81445;-64
2022/04/25 14:45:30;;;;;;;7.72;3.92;;;23.20;51.60;;;;;;6156715;28;80640;-65
2022/04/25 14:48:30;;;;;;;4.85;3.40;;;23.20;51.70;;;;;;6156442;28;80365;-65
2022/04/25 14:54:50;;;;;;;3.72;2.80;;;23.10;50.10;;;;;;6155068;28;80356;-66
2022/04/25 14:57:51;;;;;;;3.50;2.45;;;23.10;49.80;;;;;;6151072;28;82036;-65
2022/04/25 15:00:53;;;;;;;4.80;2.90;;;23.10;50.50;;;;;;6151882;28;81244;-65
2022/04/25 15:03:54;;;;;;;4.28;2.63;;;23.10;50.70;;;;;;6155864;28;80718;-66
2022/04/25 15:06:54;;;;;;;4.88;3.20;;;23.10;51.60;;;;;;6155590;28;80444;-64
2022/04/25 15:09:55;;;;;;;3.03;2.05;;;23.10;50.70;;;;;;6152912;28;80540;-63
2022/04/25 15:12:55;;;;;;;5.43;3.05;;;23.10;51.40;;;;;;6154038;28;80636;-64
2022/04/25 15:15:57;;;;;;;6.25;3.28;;;23.10;51.00;;;;;;6153671;28;80659;-63
2022/04/25 15:18:57;;;;;;;5.93;2.50;;;23.10;51.10;;;;;;6159797;28;83968;-62
2022/04/25 15:21:59;;;;;;;4.00;1.88;;;23.10;50.80;;;;;;6160500;28;80572;-67
2022/04/25 15:24:59;;;;;;;5.75;2.53;;;23.10;50.60;;;;;;6159521;28;81416;-63
2022/04/25 15:28:01;;;;;;;4.60;2.45;;;23.10;50.00;;;;;;6160076;28;80939;-64
2022/04/25 15:31:01;;;;;;;4.38;2.47;;;23.10;49.90;;;;;;6161398;28;80326;-69
2022/04/25 15:34:02;;;;;;;4.20;2.72;;;23.10;49.90;;;;;;6156571;28;80686;-63
2022/04/25 15:37:02;;;;;;;3.55;2.42;;;23.10;50.90;;;;;;6154040;28;81353;-63
2022/04/25 15:40:03;;;;;;;3.88;2.97;;;23.10;51.00;;;;;;6151272;28;82413;-63
2022/04/25 15:43:03;;;;;;;8.75;3.53;;;23.10;51.20;;;;;;6159411;28;81679;-64
2022/04/25 15:46:04;;;;;;;5.38;3.80;;;23.10;51.10;;;;;;6141479;28;80829;-62
2022/04/25 15:49:04;;;;;;;5.63;3.35;;;23.10;51.00;;;;;;6155914;28;80155;-62
2022/04/25 15:52:05;;;;;;;6.00;3.45;;;23.20;50.80;;;;;;6137599;28;80408;-62
2022/04/25 15:58:25;;;;;;;5.47;3.38;;;23.10;50.70;;;;;;6157027;28;84684;-62
2022/04/25 16:01:25;;;;;;;8.43;4.28;;;23.10;50.60;;;;;;6156224;28;80592;-63
2022/04/25 16:04:26;;;;;;;6.22;3.95;;;23.20;50.90;;;;;;6157458;28;80888;-62
2022/04/25 16:07:26;;;;;;;6.47;4.07;;;23.20;50.90;;;;;;6157171;28;80438;-63
2022/04/25 16:10:27;;;;;;;7.40;4.45;;;23.20;51.10;;;;;;6154914;28;80985;-64
2022/04/25 16:13:27;;;;;;;6.82;4.57;;;23.20;51.30;;;;;;6157333;28;80780;-64